West Ely, Missouri
Current Conditions -  °F | °C
As of 2:54 PM on Saturday 22 Nov 2014 (Local Time) from KUIN Reporting Station
Overcast Overcast  
Wind Chill: 58°   Ceiling: 2100
Heat Index: 58°   Visibility: 10mi
Dew Point: 49°   Wind: 14mph
Humidity: 72%   Direction: 190°S
Pressure: 29.87"   Gusts: NA
Location:  39.7145°N, 91.4209°W
Report Text: KUIN 222054Z AUTO 19012KT 10SM OVC021 14/09 A2987 RMK AO2 SLP115 T01440094 56024
Loading
Personal Weather Stations






























Interactive Weather Map New forecast layout! Learn more

10-Day Weather Forecast

Advertisements
Track Severe Weather on mobile